createdAt,value
2022-12-14T00:01:20.338Z,8.23
2022-12-14T00:03:47.704Z,8.67
2022-12-14T00:06:22.311Z,6.67
2022-12-14T00:08:51.227Z,8.87
2022-12-14T00:11:19.786Z,7.57
2022-12-14T00:13:49.035Z,6.30
2022-12-14T00:16:17.606Z,8.13
2022-12-14T00:18:45.582Z,7.67
2022-12-14T00:21:14.060Z,7.30
2022-12-14T00:23:42.349Z,7.13
2022-12-14T00:26:16.521Z,6.30
2022-12-14T00:28:44.013Z,6.20
2022-12-14T00:31:11.537Z,5.87
2022-12-14T00:33:39.222Z,6.73
2022-12-14T00:36:07.655Z,5.20
2022-12-14T00:38:34.922Z,5.70
2022-12-14T00:41:02.022Z,4.97
2022-12-14T00:43:29.119Z,4.70
2022-12-14T00:45:56.285Z,4.80
2022-12-14T00:48:23.805Z,4.37
2022-12-14T00:50:51.705Z,4.60
2022-12-14T00:53:20.127Z,4.63
2022-12-14T00:55:49.471Z,4.47
2022-12-14T00:58:17.882Z,4.33
2022-12-14T01:00:44.931Z,4.73
2022-12-14T01:03:12.989Z,4.37
2022-12-14T01:05:40.374Z,4.00
2022-12-14T01:08:07.977Z,4.10
2022-12-14T01:10:35.483Z,4.23
2022-12-14T01:13:02.561Z,4.20
2022-12-14T01:15:29.658Z,4.07
2022-12-14T01:17:56.715Z,3.50
2022-12-14T01:20:23.786Z,4.00
2022-12-14T01:22:55.237Z,3.90
2022-12-14T01:25:22.457Z,4.13
2022-12-14T01:27:49.650Z,4.60
2022-12-14T01:30:18.213Z,3.70
2022-12-14T01:32:45.414Z,3.97
2022-12-14T01:35:12.570Z,4.03
2022-12-14T01:37:39.621Z,4.07
2022-12-14T01:40:06.983Z,3.60
2022-12-14T01:42:35.803Z,3.93
2022-12-14T01:45:02.867Z,4.13
2022-12-14T01:47:35.040Z,4.37
2022-12-14T01:50:08.374Z,3.23
2022-12-14T01:52:38.522Z,4.27
2022-12-14T01:55:05.540Z,3.90
2022-12-14T01:57:35.369Z,4.43
2022-12-14T02:00:07.168Z,4.53
2022-12-14T02:02:35.707Z,4.10
2022-12-14T02:05:03.371Z,3.80
2022-12-14T02:07:31.330Z,4.10
2022-12-14T02:10:01.991Z,4.83
2022-12-14T02:12:31.284Z,3.87
2022-12-14T02:14:58.714Z,4.00
2022-12-14T02:17:25.782Z,4.73
2022-12-14T02:19:52.919Z,4.50
2022-12-14T02:22:25.880Z,4.97
2022-12-14T02:24:53.018Z,3.80
2022-12-14T02:27:23.082Z,3.90
2022-12-14T02:29:52.973Z,4.03
2022-12-14T02:32:22.794Z,4.43
2022-12-14T02:34:52.680Z,4.47
2022-12-14T02:37:22.464Z,3.87
2022-12-14T02:39:49.485Z,4.47
2022-12-14T02:42:22.113Z,4.67
2022-12-14T02:44:52.878Z,4.53
2022-12-14T02:47:41.617Z,5.10
2022-12-14T02:50:19.917Z,5.23
2022-12-14T02:52:52.978Z,4.60
2022-12-14T02:55:25.731Z,4.50
2022-12-14T02:58:03.791Z,4.90
2022-12-14T03:00:32.233Z,4.50
2022-12-14T03:03:00.334Z,4.20
2022-12-14T03:05:27.433Z,4.20
2022-12-14T03:07:59.702Z,4.60
2022-12-14T03:10:45.607Z,4.00
2022-12-14T03:13:28.229Z,3.93
2022-12-14T03:15:58.753Z,4.80
2022-12-14T03:18:27.766Z,4.07
2022-12-14T03:20:56.118Z,4.20
2022-12-14T03:23:25.283Z,4.10
2022-12-14T03:25:55.966Z,4.10
2022-12-14T03:28:27.320Z,4.50
2022-12-14T03:31:00.611Z,4.17
2022-12-14T03:33:28.878Z,4.77
2022-12-14T03:35:59.072Z,4.77
2022-12-14T03:38:32.680Z,4.30
2022-12-14T03:41:08.932Z,4.77
2022-12-14T03:43:43.147Z,4.57
2022-12-14T03:46:23.950Z,4.00
2022-12-14T03:48:52.039Z,4.73
2022-12-14T03:51:25.067Z,4.83
2022-12-14T03:54:12.340Z,4.07
2022-12-14T03:56:45.284Z,4.50
2022-12-14T03:59:25.792Z,4.63
2022-12-14T04:02:05.804Z,4.10
2022-12-14T04:04:49.916Z,4.97
2022-12-14T04:07:29.197Z,5.03
2022-12-14T04:10:35.147Z,4.50
2022-12-14T04:13:31.917Z,4.73
2022-12-14T04:16:20.340Z,4.40
2022-12-14T04:19:00.466Z,4.20
2022-12-14T04:21:33.801Z,4.60
2022-12-14T04:24:21.569Z,4.47
2022-12-14T04:27:00.046Z,4.00
2022-12-14T04:29:47.926Z,5.10
2022-12-14T04:32:20.828Z,4.20
2022-12-14T04:34:51.003Z,3.73
2022-12-14T04:37:20.308Z,4.80
2022-12-14T04:39:53.608Z,4.27
2022-12-14T04:42:23.670Z,4.57
2022-12-14T04:44:52.841Z,5.03
2022-12-14T04:47:20.497Z,4.77
2022-12-14T04:50:08.223Z,4.87
2022-12-14T04:52:39.275Z,4.33
2022-12-14T04:55:12.076Z,4.90
2022-12-14T04:57:54.227Z,4.70
2022-12-14T05:00:21.354Z,4.53
2022-12-14T05:02:48.456Z,4.50
2022-12-14T05:05:18.414Z,4.47
2022-12-14T05:07:51.265Z,4.63
2022-12-14T05:10:20.618Z,4.70
2022-12-14T05:12:53.602Z,4.10
2022-12-14T05:15:23.346Z,4.60
2022-12-14T05:17:50.564Z,4.23
2022-12-14T05:20:21.333Z,4.63
2022-12-14T05:22:49.566Z,4.20
2022-12-14T05:25:17.048Z,4.60
2022-12-14T05:27:44.246Z,4.33
2022-12-14T05:30:11.728Z,4.40
2022-12-14T05:32:39.764Z,4.47
2022-12-14T05:35:07.219Z,4.00
2022-12-14T05:37:34.292Z,4.33
2022-12-14T05:40:01.892Z,4.73
2022-12-14T05:42:28.961Z,4.43
2022-12-14T05:44:56.061Z,4.33
2022-12-14T05:47:23.193Z,4.67
2022-12-14T05:49:50.368Z,5.20
2022-12-14T05:52:17.793Z,4.20
2022-12-14T05:54:44.862Z,4.43
2022-12-14T05:57:12.896Z,3.97
2022-12-14T05:59:39.944Z,2.97
2022-12-14T06:02:07.092Z,4.20
2022-12-14T06:04:34.302Z,3.43
2022-12-14T06:07:01.424Z,3.40
2022-12-14T06:09:28.480Z,4.37
2022-12-14T06:11:55.592Z,4.37
2022-12-14T06:14:24.340Z,3.87
2022-12-14T06:16:51.416Z,4.03
2022-12-14T06:19:18.960Z,3.77
2022-12-14T06:21:46.026Z,4.67
2022-12-14T06:24:13.716Z,4.10
2022-12-14T06:26:41.155Z,4.60
2022-12-14T06:29:08.956Z,4.83
2022-12-14T06:31:36.438Z,5.20
2022-12-14T06:34:04.037Z,4.83
2022-12-14T06:36:35.540Z,4.67
2022-12-14T06:39:04.789Z,3.87
2022-12-14T06:41:32.149Z,4.17
2022-12-14T06:44:05.458Z,4.20
2022-12-14T06:46:32.647Z,4.60
2022-12-14T06:48:59.817Z,3.73
2022-12-14T06:51:26.965Z,4.60
2022-12-14T06:53:54.838Z,5.03
2022-12-14T06:56:22.311Z,4.90
2022-12-14T06:58:49.597Z,4.50
2022-12-14T07:01:17.972Z,4.00
2022-12-14T07:03:48.402Z,4.87
2022-12-14T07:06:15.547Z,4.47
2022-12-14T07:08:42.730Z,4.00
2022-12-14T07:11:11.656Z,4.30
2022-12-14T07:13:39.291Z,4.40
2022-12-14T07:16:07.256Z,4.03
2022-12-14T07:18:34.746Z,4.20
2022-12-14T07:21:02.898Z,5.10
2022-12-14T07:23:31.505Z,4.63
2022-12-14T07:26:06.093Z,4.37
2022-12-14T07:28:33.708Z,3.77
2022-12-14T07:31:01.545Z,4.50
2022-12-14T07:33:29.318Z,4.60
2022-12-14T07:36:03.796Z,4.83
2022-12-14T07:38:30.956Z,4.13
2022-12-14T07:41:05.278Z,4.77
2022-12-14T07:43:32.545Z,4.90
2022-12-14T07:46:01.275Z,4.10
2022-12-14T07:48:28.484Z,4.40
2022-12-14T07:50:55.620Z,4.30
2022-12-14T07:53:22.671Z,4.30
2022-12-14T07:55:50.491Z,4.70
2022-12-14T07:58:17.552Z,4.30
2022-12-14T08:00:44.920Z,4.57
2022-12-14T08:03:12.063Z,5.30
2022-12-14T08:05:39.816Z,4.60
2022-12-14T08:08:07.122Z,4.73
2022-12-14T08:10:40.199Z,4.17
2022-12-14T08:13:07.583Z,4.80
2022-12-14T08:15:37.547Z,5.07
2022-12-14T08:18:04.719Z,4.87
2022-12-14T08:20:32.143Z,4.77
2022-12-14T08:22:59.233Z,3.33
2022-12-14T08:25:26.280Z,5.13
2022-12-14T08:27:53.353Z,4.13
2022-12-14T08:30:20.479Z,3.63
2022-12-14T08:32:47.516Z,4.67
2022-12-14T08:35:16.457Z,4.30
2022-12-14T08:37:47.488Z,5.20
2022-12-14T08:40:14.921Z,5.23
2022-12-14T08:42:41.953Z,4.67
2022-12-14T08:45:09.179Z,5.10
2022-12-14T08:47:36.294Z,4.17
2022-12-14T08:50:03.354Z,4.30
2022-12-14T08:52:30.426Z,4.37
2022-12-14T08:54:58.593Z,4.37
2022-12-14T08:57:25.690Z,4.63
2022-12-14T09:00:01.294Z,4.90
2022-12-14T09:02:29.354Z,3.90
2022-12-14T09:04:56.483Z,4.00
2022-12-14T09:07:23.637Z,5.13
2022-12-14T09:09:50.707Z,5.00
2022-12-14T09:12:17.798Z,5.13
2022-12-14T09:14:46.596Z,4.33
2022-12-14T09:17:16.852Z,4.77
2022-12-14T09:19:43.917Z,3.97
2022-12-14T09:22:11.243Z,5.00
2022-12-14T09:24:38.348Z,4.37
2022-12-14T09:27:05.452Z,4.70
2022-12-14T09:29:32.674Z,4.53
2022-12-14T09:31:59.847Z,4.80
2022-12-14T09:34:26.931Z,5.10
2022-12-14T09:36:54.079Z,5.07
2022-12-14T09:39:21.175Z,5.30
2022-12-14T09:42:00.846Z,5.20
2022-12-14T09:44:52.952Z,5.50
2022-12-14T09:47:22.020Z,3.80
2022-12-14T09:49:59.489Z,5.50
2022-12-14T09:52:26.589Z,4.97
2022-12-14T09:54:54.347Z,4.53
2022-12-14T09:57:22.120Z,5.07
2022-12-14T09:59:49.237Z,5.43
2022-12-14T10:02:33.801Z,5.40
2022-12-14T10:05:06.432Z,5.63
2022-12-14T10:07:39.277Z,4.97
2022-12-14T10:10:25.081Z,4.03
2022-12-14T10:12:55.213Z,5.53
2022-12-14T10:15:43.317Z,5.27
2022-12-14T10:18:41.380Z,5.03
2022-12-14T10:21:12.695Z,5.40
2022-12-14T10:23:42.362Z,5.47
2022-12-14T10:26:12.861Z,5.73
2022-12-14T10:28:45.922Z,5.70
2022-12-14T10:31:16.251Z,4.80
2022-12-14T10:33:45.030Z,4.93
2022-12-14T10:36:15.086Z,5.60
2022-12-14T10:38:53.083Z,6.13
2022-12-14T10:41:42.367Z,5.47
2022-12-14T10:44:23.605Z,5.30
2022-12-14T10:47:09.312Z,5.20
2022-12-14T10:49:40.015Z,5.83
2022-12-14T10:52:27.370Z,5.50
2022-12-14T10:54:59.444Z,6.03
2022-12-14T10:57:27.716Z,5.40
2022-12-14T11:00:10.922Z,5.17
2022-12-14T11:02:42.074Z,3.27
2022-12-14T11:05:36.357Z,5.67
2022-12-14T11:08:07.890Z,5.80
2022-12-14T11:10:41.584Z,5.30
2022-12-14T11:13:17.213Z,4.77
2022-12-14T11:15:45.543Z,6.07
2022-12-14T11:18:12.697Z,4.97
2022-12-14T11:20:59.869Z,4.53
2022-12-14T11:23:26.908Z,5.70
2022-12-14T11:26:01.422Z,6.23
2022-12-14T11:28:36.027Z,5.87
2022-12-14T11:31:08.755Z,5.33
2022-12-14T11:33:40.250Z,6.33
2022-12-14T11:36:08.408Z,6.27
2022-12-14T11:38:35.731Z,5.87
2022-12-14T11:41:10.662Z,6.13
2022-12-14T11:43:38.927Z,5.63
2022-12-14T11:46:06.154Z,5.97
2022-12-14T11:48:38.337Z,5.93
2022-12-14T11:51:10.919Z,6.10
2022-12-14T11:53:38.057Z,6.23
2022-12-14T11:56:07.562Z,6.07
2022-12-14T11:58:36.395Z,6.33
2022-12-14T12:01:05.645Z,6.43
2022-12-14T12:03:41.438Z,6.30
2022-12-14T12:06:11.054Z,6.80
2022-12-14T12:08:39.655Z,5.77
2022-12-14T12:11:15.267Z,5.27
2022-12-14T12:13:44.935Z,6.40
2022-12-14T12:16:16.451Z,6.30
2022-12-14T12:18:46.534Z,6.97
2022-12-14T12:21:30.376Z,6.27
2022-12-14T12:24:16.699Z,6.63
2022-12-14T12:26:50.038Z,5.73
2022-12-14T12:29:24.130Z,6.47
2022-12-14T12:32:06.290Z,6.50
2022-12-14T12:34:44.880Z,6.87
2022-12-14T12:37:26.258Z,6.10
2022-12-14T12:39:57.889Z,6.67
2022-12-14T12:42:45.961Z,6.37
2022-12-14T12:45:16.153Z,6.10
2022-12-14T12:47:50.336Z,6.73
2022-12-14T12:50:18.907Z,6.27
2022-12-14T12:52:51.919Z,6.67
2022-12-14T12:55:20.065Z,6.60
2022-12-14T12:57:49.435Z,6.90
2022-12-14T13:00:21.426Z,6.60
2022-12-14T13:02:51.863Z,6.30
2022-12-14T13:05:45.827Z,6.43
2022-12-14T13:08:19.781Z,6.90
2022-12-14T13:11:17.336Z,6.57
2022-12-14T13:13:35.875Z,5.83
2022-12-14T13:16:21.451Z,6.17
2022-12-14T13:19:05.005Z,6.20
2022-12-14T13:21:44.690Z,7.83
2022-12-14T13:24:18.040Z,7.27
2022-12-14T13:26:58.599Z,6.47
2022-12-14T13:29:38.194Z,7.93
2022-12-14T13:32:17.195Z,7.27
2022-12-14T13:35:03.948Z,7.57
2022-12-14T13:37:43.564Z,7.87
2022-12-14T13:40:16.554Z,7.67
2022-12-14T13:42:52.013Z,7.53
2022-12-14T13:45:21.117Z,7.70
2022-12-14T13:47:52.203Z,7.10
2022-12-14T13:50:40.848Z,7.40
2022-12-14T13:53:19.166Z,8.17
2022-12-14T13:56:04.969Z,7.27
2022-12-14T13:58:32.369Z,7.67
2022-12-14T14:00:59.709Z,6.80
2022-12-14T14:03:36.084Z,7.73
2022-12-14T14:06:09.182Z,7.60
2022-12-14T14:08:41.813Z,7.23
2022-12-14T14:11:36.946Z,7.03
2022-12-14T14:14:12.505Z,7.20
2022-12-14T14:16:43.645Z,7.23
2022-12-14T14:19:11.281Z,7.50
2022-12-14T14:22:06.163Z,7.70
2022-12-14T14:24:28.766Z,6.97
2022-12-14T14:27:11.313Z,8.07
2022-12-14T14:29:45.066Z,7.20
2022-12-14T14:32:31.455Z,7.03
2022-12-14T14:34:58.612Z,7.87
2022-12-14T14:37:27.988Z,7.20
2022-12-14T14:40:04.900Z,6.97
2022-12-14T14:42:42.369Z,7.30
2022-12-14T14:45:22.496Z,7.03
2022-12-14T14:47:55.464Z,7.20
2022-12-14T14:50:24.315Z,7.40
2022-12-14T14:52:59.190Z,7.20
2022-12-14T14:58:26.887Z,6.97
2022-12-14T15:01:12.923Z,7.53
2022-12-14T15:03:46.105Z,7.07
2022-12-14T15:06:15.570Z,7.40
2022-12-14T15:08:45.272Z,7.43
2022-12-14T15:11:16.717Z,7.17
2022-12-14T15:13:46.213Z,7.40
2022-12-14T15:16:29.765Z,7.57
2022-12-14T15:19:14.024Z,8.03
2022-12-14T15:21:41.162Z,8.30
2022-12-14T15:24:14.290Z,7.97
2022-12-14T15:26:41.369Z,6.93
2022-12-14T15:29:15.360Z,7.93
2022-12-14T15:31:43.880Z,7.40
2022-12-14T15:34:18.140Z,7.47
2022-12-14T15:36:45.515Z,6.93
2022-12-14T15:39:32.585Z,7.53
2022-12-14T15:42:27.067Z,7.33
2022-12-14T15:44:55.967Z,7.43
2022-12-14T15:47:24.356Z,7.67
2022-12-14T15:49:57.568Z,7.20
2022-12-14T15:52:30.847Z,8.07
2022-12-14T15:54:59.180Z,7.70
2022-12-14T15:57:26.299Z,8.33
2022-12-14T15:59:55.205Z,7.73
2022-12-14T16:02:30.279Z,6.57
2022-12-14T16:04:58.685Z,8.70
2022-12-14T16:07:38.424Z,8.00
2022-12-14T16:10:15.447Z,8.50
2022-12-14T16:12:45.411Z,8.27
2022-12-14T16:15:20.606Z,8.83
2022-12-14T16:17:47.816Z,7.73
2022-12-14T16:20:16.171Z,7.10
2022-12-14T16:22:57.288Z,7.37
2022-12-14T16:25:24.474Z,8.07
2022-12-14T16:27:52.539Z,8.60
2022-12-14T16:30:24.461Z,9.13
2022-12-14T16:33:10.145Z,7.83
2022-12-14T16:35:38.183Z,8.43
2022-12-14T16:38:11.425Z,9.00
2022-12-14T16:40:39.978Z,9.30
2022-12-14T16:43:08.129Z,9.03
2022-12-14T16:45:46.142Z,8.87
2022-12-14T16:48:22.983Z,8.07
2022-12-14T16:51:01.319Z,8.80
2022-12-14T16:53:35.211Z,8.47
2022-12-14T16:56:05.677Z,8.20
2022-12-14T16:58:33.615Z,9.13
2022-12-14T17:01:02.445Z,8.77
2022-12-14T17:03:30.592Z,8.57
2022-12-14T17:06:00.299Z,8.93
2022-12-14T17:08:27.520Z,9.10
2022-12-14T17:10:54.995Z,9.57
2022-12-14T17:13:22.080Z,9.27
2022-12-14T17:16:06.069Z,8.30
2022-12-14T17:18:34.831Z,9.00
2022-12-14T17:21:02.285Z,10.07
2022-12-14T17:23:29.893Z,9.13
2022-12-14T17:25:57.283Z,9.97
2022-12-14T17:28:27.093Z,9.17
2022-12-14T17:30:57.185Z,10.60
2022-12-14T17:33:28.561Z,9.03
2022-12-14T17:35:56.592Z,9.07
2022-12-14T17:38:23.751Z,10.43
2022-12-14T17:40:51.632Z,9.37
2022-12-14T17:43:20.704Z,9.83
2022-12-14T17:45:47.799Z,9.13
2022-12-14T17:48:15.731Z,8.73
2022-12-14T17:50:44.390Z,9.43
2022-12-14T17:53:15.435Z,9.87
2022-12-14T17:55:42.499Z,9.27
2022-12-14T17:58:12.848Z,9.90
2022-12-14T18:00:59.366Z,9.27
2022-12-14T18:03:26.598Z,8.73
2022-12-14T18:05:53.897Z,10.00
2022-12-14T18:08:22.107Z,10.13
2022-12-14T18:10:54.046Z,9.27
2022-12-14T18:13:21.209Z,9.63
2022-12-14T18:15:50.531Z,9.73
2022-12-14T18:18:21.339Z,9.47
2022-12-14T18:20:50.891Z,10.40
2022-12-14T18:23:19.090Z,9.63
2022-12-14T18:25:47.876Z,10.47
2022-12-14T18:28:15.398Z,10.80
2022-12-14T18:30:49.436Z,10.00
2022-12-14T18:33:21.785Z,9.90
2022-12-14T18:35:49.976Z,9.50
2022-12-14T18:38:17.313Z,10.63
2022-12-14T18:40:46.124Z,10.47
2022-12-14T18:43:18.573Z,10.87
2022-12-14T18:45:45.717Z,11.57
2022-12-14T18:48:12.919Z,10.43
2022-12-14T18:50:43.171Z,10.03
2022-12-14T18:53:14.970Z,10.53
2022-12-14T18:55:42.133Z,10.60
2022-12-14T18:58:14.731Z,10.37
2022-12-14T19:00:41.858Z,10.00
2022-12-14T19:03:09.030Z,12.27
2022-12-14T19:05:36.280Z,12.30
2022-12-14T19:08:03.844Z,12.30
2022-12-14T19:10:32.449Z,14.07
2022-12-14T19:13:00.006Z,14.20
2022-12-14T19:15:29.120Z,15.83
2022-12-14T19:17:56.604Z,14.27
2022-12-14T19:20:24.476Z,12.30
2022-12-14T19:22:51.577Z,12.40
2022-12-14T19:25:19.726Z,11.40
2022-12-14T19:30:34.653Z,12.10
2022-12-14T19:33:01.883Z,13.53
2022-12-14T19:35:29.041Z,12.87
2022-12-14T19:37:56.100Z,11.80
2022-12-14T19:40:23.297Z,11.50
2022-12-14T19:42:50.549Z,11.60
2022-12-14T19:45:17.707Z,10.50
2022-12-14T19:47:44.834Z,10.90
2022-12-14T19:50:13.347Z,11.40
2022-12-14T19:52:40.409Z,10.87
2022-12-14T19:55:07.573Z,11.27
2022-12-14T19:57:34.857Z,10.50
2022-12-14T20:00:02.510Z,10.50
2022-12-14T20:02:29.934Z,11.40
2022-12-14T20:04:57.149Z,11.10
2022-12-14T20:07:24.291Z,10.63
2022-12-14T20:09:51.341Z,10.60
2022-12-14T20:12:18.441Z,11.00
2022-12-14T20:14:45.480Z,12.63
2022-12-14T20:17:16.567Z,11.33
2022-12-14T20:19:43.723Z,10.57
2022-12-14T20:22:11.268Z,10.50
2022-12-14T20:24:38.314Z,9.70
2022-12-14T20:27:05.461Z,11.13
2022-12-14T20:29:32.947Z,10.20
2022-12-14T20:32:00.094Z,10.80
2022-12-14T20:34:28.952Z,10.80
2022-12-14T20:36:56.010Z,10.03
2022-12-14T20:39:23.137Z,9.27
2022-12-14T20:41:50.226Z,9.23
2022-12-14T20:44:17.330Z,9.77
2022-12-14T20:46:47.357Z,9.47
2022-12-14T20:49:16.500Z,9.13
2022-12-14T20:51:44.450Z,9.27
2022-12-14T20:54:12.631Z,8.83
2022-12-14T20:56:39.839Z,10.63
2022-12-14T20:59:07.820Z,10.33
2022-12-14T21:01:36.182Z,9.97
2022-12-14T21:04:03.706Z,10.37
2022-12-14T21:06:32.916Z,10.27
2022-12-14T21:09:09.420Z,10.13
2022-12-14T21:11:56.731Z,9.83
2022-12-14T21:14:24.788Z,9.83
2022-12-14T21:16:52.076Z,10.37
2022-12-14T21:19:19.542Z,10.97
2022-12-14T21:21:53.024Z,9.90
2022-12-14T21:24:44.781Z,9.97
2022-12-14T21:27:09.213Z,10.10
2022-12-14T21:29:36.309Z,10.00
2022-12-14T21:32:04.304Z,9.93
2022-12-14T21:34:31.932Z,9.67
2022-12-14T21:36:59.257Z,10.70
2022-12-14T21:39:26.367Z,10.30
2022-12-14T21:42:12.226Z,11.03
2022-12-14T21:44:49.468Z,9.53
2022-12-14T21:47:17.657Z,9.73
2022-12-14T21:49:45.432Z,9.30
2022-12-14T21:52:14.019Z,11.13
2022-12-14T21:54:41.908Z,10.00
2022-12-14T21:57:31.451Z,9.70
2022-12-14T21:59:58.597Z,9.17
2022-12-14T22:02:26.484Z,9.57
2022-12-14T22:04:56.091Z,9.10
2022-12-14T22:07:24.414Z,8.80
2022-12-14T22:09:51.759Z,8.70
2022-12-14T22:12:18.883Z,9.87
2022-12-14T22:14:45.960Z,9.70
2022-12-14T22:17:14.547Z,9.77
2022-12-14T22:19:41.681Z,9.13
2022-12-14T22:22:13.082Z,9.90
2022-12-14T22:24:40.809Z,10.13
2022-12-14T22:27:07.948Z,10.00
2022-12-14T22:29:35.109Z,10.37
2022-12-14T22:32:02.662Z,9.33
2022-12-14T22:34:29.885Z,10.20
2022-12-14T22:36:57.023Z,9.70
2022-12-14T22:39:24.131Z,9.23
2022-12-14T22:41:51.280Z,9.73
2022-12-14T22:44:18.478Z,10.00
2022-12-14T22:46:45.657Z,9.77
2022-12-14T22:49:16.581Z,9.03
2022-12-14T22:51:43.785Z,10.10
2022-12-14T22:54:16.240Z,10.00
2022-12-14T22:56:46.395Z,10.30
2022-12-14T22:59:18.068Z,9.37
2022-12-14T23:01:49.663Z,10.27
2022-12-14T23:04:17.823Z,9.80
2022-12-14T23:06:45.617Z,9.73
2022-12-14T23:09:31.388Z,10.30
2022-12-14T23:12:21.500Z,9.73
2022-12-14T23:15:08.278Z,9.53
2022-12-14T23:17:54.844Z,10.57
2022-12-14T23:20:40.597Z,11.17
2022-12-14T23:23:27.436Z,10.17
2022-12-14T23:26:13.771Z,9.83
2022-12-14T23:28:59.747Z,9.67
2022-12-14T23:31:45.674Z,8.83
2022-12-14T23:34:31.550Z,9.70
2022-12-14T23:37:20.357Z,9.97
2022-12-14T23:40:06.543Z,9.90
2022-12-14T23:42:52.347Z,9.60
2022-12-14T23:45:38.263Z,10.27
2022-12-14T23:48:23.980Z,10.27
2022-12-14T23:51:10.179Z,9.83
2022-12-14T23:53:56.349Z,9.87
2022-12-14T23:56:41.959Z,10.00
2022-12-14T23:59:32.340Z,10.13
